sensor_id;sensor_type;location;lat;lon;timestamp;P1;durP1;ratioP1;P2;durP2;ratioP2
36105;SDS011;22159;55.736;38.048;2023-02-13T00:00:44;1.88;;;0.70;;
36105;SDS011;22159;55.736;38.048;2023-02-13T00:03:10;0.75;;;0.60;;
36105;SDS011;22159;55.736;38.048;2023-02-13T00:05:36;1.00;;;0.70;;
36105;SDS011;22159;55.736;38.048;2023-02-13T00:08:02;1.02;;;0.60;;
36105;SDS011;22159;55.736;38.048;2023-02-13T00:10:28;4.35;;;0.70;;
36105;SDS011;22159;55.736;38.048;2023-02-13T00:12:54;3.92;;;1.20;;
36105;SDS011;22159;55.736;38.048;2023-02-13T00:15:20;2.30;;;0.70;;
36105;SDS011;22159;55.736;38.048;2023-02-13T00:17:47;1.85;;;0.68;;
36105;SDS011;22159;55.736;38.048;2023-02-13T00:20:13;2.05;;;0.85;;
36105;SDS011;22159;55.736;38.048;2023-02-13T00:22:39;1.73;;;0.75;;
36105;SDS011;22159;55.736;38.048;2023-02-13T00:25:05;1.75;;;0.85;;
36105;SDS011;22159;55.736;38.048;2023-02-13T00:27:31;1.48;;;0.70;;
36105;SDS011;22159;55.736;38.048;2023-02-13T00:29:57;2.60;;;0.90;;
36105;SDS011;22159;55.736;38.048;2023-02-13T00:32:24;2.78;;;0.95;;
36105;SDS011;22159;55.736;38.048;2023-02-13T00:34:50;2.63;;;0.80;;
36105;SDS011;22159;55.736;38.048;2023-02-13T00:37:16;2.10;;;0.95;;
36105;SDS011;22159;55.736;38.048;2023-02-13T00:39:42;1.58;;;0.80;;
36105;SDS011;22159;55.736;38.048;2023-02-13T00:42:08;2.30;;;0.80;;
36105;SDS011;22159;55.736;38.048;2023-02-13T00:44:34;1.73;;;0.95;;
36105;SDS011;22159;55.736;38.048;2023-02-13T00:47:00;3.13;;;1.05;;
36105;SDS011;22159;55.736;38.048;2023-02-13T00:49:26;2.95;;;0.85;;
36105;SDS011;22159;55.736;38.048;2023-02-13T00:51:52;1.80;;;1.08;;
36105;SDS011;22159;55.736;38.048;2023-02-13T00:54:18;1.88;;;0.82;;
36105;SDS011;22159;55.736;38.048;2023-02-13T00:56:44;1.85;;;0.95;;
36105;SDS011;22159;55.736;38.048;2023-02-13T00:59:10;2.13;;;0.93;;
36105;SDS011;22159;55.736;38.048;2023-02-13T01:01:36;2.83;;;1.05;;
36105;SDS011;22159;55.736;38.048;2023-02-13T01:04:02;1.83;;;1.00;;
36105;SDS011;22159;55.736;38.048;2023-02-13T01:06:28;1.60;;;0.80;;
36105;SDS011;22159;55.736;38.048;2023-02-13T01:08:54;1.55;;;0.80;;
36105;SDS011;22159;55.736;38.048;2023-02-13T01:11:20;1.98;;;1.02;;
36105;SDS011;22159;55.736;38.048;2023-02-13T01:13:46;2.40;;;0.90;;
36105;SDS011;22159;55.736;38.048;2023-02-13T01:16:12;1.70;;;1.00;;
36105;SDS011;22159;55.736;38.048;2023-02-13T01:18:41;1.48;;;0.80;;
36105;SDS011;22159;55.736;38.048;2023-02-13T01:21:08;2.13;;;1.05;;
36105;SDS011;22159;55.736;38.048;2023-02-13T01:23:39;3.15;;;1.10;;
36105;SDS011;22159;55.736;38.048;2023-02-13T01:26:06;2.35;;;1.20;;
36105;SDS011;22159;55.736;38.048;2023-02-13T01:28:33;2.47;;;0.90;;
36105;SDS011;22159;55.736;38.048;2023-02-13T01:30:59;1.90;;;0.95;;
36105;SDS011;22159;55.736;38.048;2023-02-13T01:33:26;1.63;;;0.98;;
36105;SDS011;22159;55.736;38.048;2023-02-13T01:35:52;2.25;;;1.00;;
36105;SDS011;22159;55.736;38.048;2023-02-13T01:38:18;1.63;;;0.90;;
36105;SDS011;22159;55.736;38.048;2023-02-13T01:40:51;1.98;;;0.80;;
36105;SDS011;22159;55.736;38.048;2023-02-13T01:43:17;1.67;;;0.77;;
36105;SDS011;22159;55.736;38.048;2023-02-13T01:45:44;1.55;;;0.90;;
36105;SDS011;22159;55.736;38.048;2023-02-13T01:48:16;1.70;;;0.70;;
36105;SDS011;22159;55.736;38.048;2023-02-13T01:50:45;3.55;;;0.82;;
36105;SDS011;22159;55.736;38.048;2023-02-13T01:53:17;1.48;;;1.00;;
36105;SDS011;22159;55.736;38.048;2023-02-13T01:55:48;1.35;;;1.02;;
36105;SDS011;22159;55.736;38.048;2023-02-13T01:58:16;1.52;;;0.80;;
36105;SDS011;22159;55.736;38.048;2023-02-13T02:00:43;1.58;;;1.13;;
36105;SDS011;22159;55.736;38.048;2023-02-13T02:03:15;1.23;;;0.83;;
36105;SDS011;22159;55.736;38.048;2023-02-13T02:05:42;3.78;;;0.95;;
36105;SDS011;22159;55.736;38.048;2023-02-13T02:08:09;0.80;;;0.70;;
36105;SDS011;22159;55.736;38.048;2023-02-13T02:10:35;1.13;;;0.80;;
36105;SDS011;22159;55.736;38.048;2023-02-13T02:13:34;1.38;;;0.80;;
36105;SDS011;22159;55.736;38.048;2023-02-13T02:15:53;0.65;;;0.65;;
36105;SDS011;22159;55.736;38.048;2023-02-13T02:18:21;0.80;;;0.80;;
36105;SDS011;22159;55.736;38.048;2023-02-13T02:36:28;1.08;;;0.70;;
36105;SDS011;22159;55.736;38.048;2023-02-13T02:39:14;1.42;;;0.80;;
36105;SDS011;22159;55.736;38.048;2023-02-13T02:50:13;1.52;;;0.75;;
36105;SDS011;22159;55.736;38.048;2023-02-13T02:55:09;3.03;;;0.80;;
36105;SDS011;22159;55.736;38.048;2023-02-13T02:57:41;1.42;;;0.70;;
36105;SDS011;22159;55.736;38.048;2023-02-13T03:00:27;0.90;;;0.70;;
36105;SDS011;22159;55.736;38.048;2023-02-13T03:03:17;1.52;;;0.90;;
36105;SDS011;22159;55.736;38.048;2023-02-13T03:06:03;0.95;;;0.60;;
36105;SDS011;22159;55.736;38.048;2023-02-13T03:08:36;0.85;;;0.70;;
36105;SDS011;22159;55.736;38.048;2023-02-13T03:11:21;2.05;;;1.00;;
36105;SDS011;22159;55.736;38.048;2023-02-13T03:14:06;0.95;;;0.60;;
36105;SDS011;22159;55.736;38.048;2023-02-13T03:16:34;1.33;;;0.77;;
36105;SDS011;22159;55.736;38.048;2023-02-13T03:25:17;1.05;;;0.70;;
36105;SDS011;22159;55.736;38.048;2023-02-13T03:27:58;1.27;;;0.85;;
36105;SDS011;22159;55.736;38.048;2023-02-13T03:30:55;1.25;;;0.85;;
36105;SDS011;22159;55.736;38.048;2023-02-13T03:36:25;1.23;;;0.70;;
36105;SDS011;22159;55.736;38.048;2023-02-13T03:39:16;1.67;;;0.90;;
36105;SDS011;22159;55.736;38.048;2023-02-13T03:41:54;1.52;;;0.93;;
36105;SDS011;22159;55.736;38.048;2023-02-13T03:46:55;2.75;;;1.27;;
36105;SDS011;22159;55.736;38.048;2023-02-13T03:49:29;3.75;;;1.50;;
36105;SDS011;22159;55.736;38.048;2023-02-13T03:52:22;2.55;;;1.30;;
36105;SDS011;22159;55.736;38.048;2023-02-13T03:54:56;2.08;;;1.33;;
36105;SDS011;22159;55.736;38.048;2023-02-13T03:57:42;4.03;;;1.48;;
36105;SDS011;22159;55.736;38.048;2023-02-13T04:00:28;3.20;;;1.10;;
36105;SDS011;22159;55.736;38.048;2023-02-13T04:03:00;3.05;;;1.40;;
36105;SDS011;22159;55.736;38.048;2023-02-13T04:05:28;2.72;;;1.25;;
36105;SDS011;22159;55.736;38.048;2023-02-13T04:07:55;2.30;;;1.30;;
36105;SDS011;22159;55.736;38.048;2023-02-13T04:10:21;3.80;;;1.55;;
36105;SDS011;22159;55.736;38.048;2023-02-13T04:12:52;8.43;;;3.80;;
36105;SDS011;22159;55.736;38.048;2023-02-13T04:15:25;5.10;;;2.75;;
36105;SDS011;22159;55.736;38.048;2023-02-13T04:20:37;5.72;;;2.50;;
36105;SDS011;22159;55.736;38.048;2023-02-13T04:23:05;7.60;;;1.85;;
36105;SDS011;22159;55.736;38.048;2023-02-13T04:25:31;6.65;;;1.85;;
36105;SDS011;22159;55.736;38.048;2023-02-13T04:27:58;5.50;;;1.92;;
36105;SDS011;22159;55.736;38.048;2023-02-13T04:30:24;2.97;;;1.60;;
36105;SDS011;22159;55.736;38.048;2023-02-13T04:32:50;3.95;;;1.50;;
36105;SDS011;22159;55.736;38.048;2023-02-13T04:35:16;2.28;;;1.27;;
36105;SDS011;22159;55.736;38.048;2023-02-13T04:37:43;3.40;;;1.70;;
36105;SDS011;22159;55.736;38.048;2023-02-13T04:40:09;2.28;;;1.30;;
36105;SDS011;22159;55.736;38.048;2023-02-13T04:42:35;2.78;;;1.40;;
36105;SDS011;22159;55.736;38.048;2023-02-13T04:45:01;2.60;;;1.02;;
36105;SDS011;22159;55.736;38.048;2023-02-13T04:47:27;2.17;;;1.23;;
36105;SDS011;22159;55.736;38.048;2023-02-13T04:49:53;3.10;;;1.30;;
36105;SDS011;22159;55.736;38.048;2023-02-13T04:52:19;2.53;;;0.90;;
36105;SDS011;22159;55.736;38.048;2023-02-13T04:54:45;2.28;;;1.20;;
36105;SDS011;22159;55.736;38.048;2023-02-13T04:57:11;1.90;;;0.80;;
36105;SDS011;22159;55.736;38.048;2023-02-13T04:59:37;3.97;;;0.98;;
36105;SDS011;22159;55.736;38.048;2023-02-13T05:02:03;1.77;;;0.80;;
36105;SDS011;22159;55.736;38.048;2023-02-13T05:04:29;1.20;;;0.85;;
36105;SDS011;22159;55.736;38.048;2023-02-13T05:06:56;1.77;;;0.90;;
36105;SDS011;22159;55.736;38.048;2023-02-13T05:09:22;1.52;;;1.05;;
36105;SDS011;22159;55.736;38.048;2023-02-13T05:11:54;1.77;;;0.85;;
36105;SDS011;22159;55.736;38.048;2023-02-13T05:14:20;1.95;;;0.80;;
36105;SDS011;22159;55.736;38.048;2023-02-13T05:16:46;2.05;;;0.85;;
36105;SDS011;22159;55.736;38.048;2023-02-13T05:19:13;1.30;;;0.85;;
36105;SDS011;22159;55.736;38.048;2023-02-13T05:21:39;1.50;;;0.85;;
36105;SDS011;22159;55.736;38.048;2023-02-13T05:24:24;2.25;;;1.00;;
36105;SDS011;22159;55.736;38.048;2023-02-13T05:26:50;2.05;;;0.80;;
36105;SDS011;22159;55.736;38.048;2023-02-13T05:29:16;2.60;;;0.88;;
36105;SDS011;22159;55.736;38.048;2023-02-13T05:31:50;1.88;;;0.93;;
36105;SDS011;22159;55.736;38.048;2023-02-13T05:34:17;2.75;;;0.80;;
36105;SDS011;22159;55.736;38.048;2023-02-13T05:36:43;1.02;;;0.70;;
36105;SDS011;22159;55.736;38.048;2023-02-13T05:39:09;3.05;;;0.90;;
36105;SDS011;22159;55.736;38.048;2023-02-13T05:41:35;2.13;;;1.02;;
36105;SDS011;22159;55.736;38.048;2023-02-13T05:44:01;2.05;;;0.80;;
36105;SDS011;22159;55.736;38.048;2023-02-13T05:46:27;2.05;;;0.80;;
36105;SDS011;22159;55.736;38.048;2023-02-13T05:48:53;1.25;;;0.73;;
36105;SDS011;22159;55.736;38.048;2023-02-13T05:51:19;1.48;;;0.70;;
36105;SDS011;22159;55.736;38.048;2023-02-13T05:53:45;1.05;;;0.68;;
36105;SDS011;22159;55.736;38.048;2023-02-13T05:56:11;1.67;;;0.95;;
36105;SDS011;22159;55.736;38.048;2023-02-13T05:58:37;2.60;;;1.08;;
36105;SDS011;22159;55.736;38.048;2023-02-13T06:01:03;1.42;;;0.70;;
36105;SDS011;22159;55.736;38.048;2023-02-13T06:03:30;1.40;;;0.85;;
36105;SDS011;22159;55.736;38.048;2023-02-13T06:05:56;2.38;;;0.70;;
36105;SDS011;22159;55.736;38.048;2023-02-13T06:08:23;1.42;;;0.88;;
36105;SDS011;22159;55.736;38.048;2023-02-13T06:10:49;1.75;;;0.85;;
36105;SDS011;22159;55.736;38.048;2023-02-13T06:13:15;1.52;;;0.70;;
36105;SDS011;22159;55.736;38.048;2023-02-13T06:15:41;2.15;;;0.80;;
36105;SDS011;22159;55.736;38.048;2023-02-13T06:18:08;1.70;;;0.90;;
36105;SDS011;22159;55.736;38.048;2023-02-13T06:20:34;1.15;;;0.75;;
36105;SDS011;22159;55.736;38.048;2023-02-13T06:23:00;1.58;;;0.60;;
36105;SDS011;22159;55.736;38.048;2023-02-13T06:25:26;1.15;;;0.65;;
36105;SDS011;22159;55.736;38.048;2023-02-13T06:27:52;1.80;;;0.80;;
36105;SDS011;22159;55.736;38.048;2023-02-13T06:30:19;2.45;;;1.00;;
36105;SDS011;22159;55.736;38.048;2023-02-13T06:32:45;1.30;;;0.90;;
36105;SDS011;22159;55.736;38.048;2023-02-13T06:35:12;1.65;;;0.65;;
36105;SDS011;22159;55.736;38.048;2023-02-13T06:37:38;1.58;;;0.80;;
36105;SDS011;22159;55.736;38.048;2023-02-13T06:40:05;2.15;;;0.77;;
36105;SDS011;22159;55.736;38.048;2023-02-13T06:42:31;1.95;;;1.00;;
36105;SDS011;22159;55.736;38.048;2023-02-13T06:44:57;2.45;;;0.80;;
36105;SDS011;22159;55.736;38.048;2023-02-13T06:47:23;2.90;;;0.70;;
36105;SDS011;22159;55.736;38.048;2023-02-13T06:49:49;3.30;;;0.80;;
36105;SDS011;22159;55.736;38.048;2023-02-13T06:52:15;1.52;;;0.75;;
36105;SDS011;22159;55.736;38.048;2023-02-13T06:54:41;3.28;;;1.10;;
36105;SDS011;22159;55.736;38.048;2023-02-13T06:57:07;2.05;;;0.88;;
36105;SDS011;22159;55.736;38.048;2023-02-13T06:59:33;3.33;;;0.90;;
36105;SDS011;22159;55.736;38.048;2023-02-13T07:01:59;2.90;;;1.00;;
36105;SDS011;22159;55.736;38.048;2023-02-13T07:04:26;1.73;;;1.00;;
36105;SDS011;22159;55.736;38.048;2023-02-13T07:06:55;1.73;;;0.88;;
36105;SDS011;22159;55.736;38.048;2023-02-13T07:09:24;2.72;;;0.90;;
36105;SDS011;22159;55.736;38.048;2023-02-13T07:11:50;1.35;;;0.80;;
36105;SDS011;22159;55.736;38.048;2023-02-13T07:14:16;2.55;;;0.93;;
36105;SDS011;22159;55.736;38.048;2023-02-13T07:16:42;1.25;;;0.80;;
36105;SDS011;22159;55.736;38.048;2023-02-13T07:19:08;2.15;;;0.70;;
36105;SDS011;22159;55.736;38.048;2023-02-13T07:21:34;1.35;;;0.90;;
36105;SDS011;22159;55.736;38.048;2023-02-13T07:24:02;2.15;;;0.80;;
36105;SDS011;22159;55.736;38.048;2023-02-13T07:26:28;3.55;;;0.75;;
36105;SDS011;22159;55.736;38.048;2023-02-13T07:28:54;1.95;;;1.10;;
36105;SDS011;22159;55.736;38.048;2023-02-13T07:31:20;1.17;;;0.80;;
36105;SDS011;22159;55.736;38.048;2023-02-13T07:33:49;2.72;;;0.80;;
36105;SDS011;22159;55.736;38.048;2023-02-13T07:36:15;2.55;;;1.00;;
36105;SDS011;22159;55.736;38.048;2023-02-13T07:38:41;3.65;;;0.80;;
36105;SDS011;22159;55.736;38.048;2023-02-13T07:41:08;2.00;;;0.90;;
36105;SDS011;22159;55.736;38.048;2023-02-13T07:43:34;1.13;;;0.50;;
36105;SDS011;22159;55.736;38.048;2023-02-13T07:46:00;1.25;;;0.70;;
36105;SDS011;22159;55.736;38.048;2023-02-13T07:48:27;1.65;;;0.80;;
36105;SDS011;22159;55.736;38.048;2023-02-13T07:50:53;1.58;;;0.77;;
36105;SDS011;22159;55.736;38.048;2023-02-13T07:53:19;1.80;;;0.70;;
36105;SDS011;22159;55.736;38.048;2023-02-13T07:55:46;2.17;;;0.70;;
36105;SDS011;22159;55.736;38.048;2023-02-13T07:58:12;2.35;;;0.90;;
36105;SDS011;22159;55.736;38.048;2023-02-13T08:00:38;1.85;;;0.70;;
36105;SDS011;22159;55.736;38.048;2023-02-13T08:03:04;2.55;;;0.82;;
36105;SDS011;22159;55.736;38.048;2023-02-13T08:05:31;3.80;;;0.90;;
36105;SDS011;22159;55.736;38.048;2023-02-13T08:07:57;2.47;;;0.80;;
36105;SDS011;22159;55.736;38.048;2023-02-13T08:10:23;2.47;;;0.90;;
36105;SDS011;22159;55.736;38.048;2023-02-13T08:13:08;1.23;;;0.80;;
36105;SDS011;22159;55.736;38.048;2023-02-13T08:15:34;1.13;;;0.60;;
36105;SDS011;22159;55.736;38.048;2023-02-13T08:18:00;2.65;;;0.98;;
36105;SDS011;22159;55.736;38.048;2023-02-13T08:20:26;2.70;;;0.80;;
36105;SDS011;22159;55.736;38.048;2023-02-13T08:22:52;2.33;;;0.90;;
36105;SDS011;22159;55.736;38.048;2023-02-13T08:25:18;3.08;;;1.00;;
36105;SDS011;22159;55.736;38.048;2023-02-13T08:27:45;3.63;;;0.75;;
36105;SDS011;22159;55.736;38.048;2023-02-13T08:30:11;0.88;;;0.63;;
36105;SDS011;22159;55.736;38.048;2023-02-13T08:32:39;3.10;;;1.00;;
36105;SDS011;22159;55.736;38.048;2023-02-13T08:35:05;2.55;;;0.70;;
36105;SDS011;22159;55.736;38.048;2023-02-13T08:37:31;1.98;;;0.80;;
36105;SDS011;22159;55.736;38.048;2023-02-13T08:39:57;3.28;;;1.00;;
36105;SDS011;22159;55.736;38.048;2023-02-13T08:42:23;2.97;;;0.65;;
36105;SDS011;22159;55.736;38.048;2023-02-13T08:44:49;3.08;;;0.90;;
36105;SDS011;22159;55.736;38.048;2023-02-13T08:47:15;3.03;;;1.00;;
36105;SDS011;22159;55.736;38.048;2023-02-13T08:49:41;1.67;;;0.80;;
36105;SDS011;22159;55.736;38.048;2023-02-13T08:52:07;1.90;;;0.70;;
36105;SDS011;22159;55.736;38.048;2023-02-13T08:54:33;2.08;;;0.93;;
36105;SDS011;22159;55.736;38.048;2023-02-13T08:57:00;2.42;;;0.75;;
36105;SDS011;22159;55.736;38.048;2023-02-13T08:59:26;2.55;;;0.80;;
36105;SDS011;22159;55.736;38.048;2023-02-13T09:01:52;1.58;;;0.70;;
36105;SDS011;22159;55.736;38.048;2023-02-13T09:04:18;1.60;;;0.90;;
36105;SDS011;22159;55.736;38.048;2023-02-13T09:06:44;2.38;;;0.60;;
36105;SDS011;22159;55.736;38.048;2023-02-13T09:09:10;1.42;;;0.77;;
36105;SDS011;22159;55.736;38.048;2023-02-13T09:11:36;1.20;;;0.70;;
36105;SDS011;22159;55.736;38.048;2023-02-13T09:14:02;3.65;;;0.88;;
36105;SDS011;22159;55.736;38.048;2023-02-13T09:16:28;3.50;;;0.82;;
36105;SDS011;22159;55.736;38.048;2023-02-13T09:18:54;2.20;;;0.73;;
36105;SDS011;22159;55.736;38.048;2023-02-13T09:21:21;2.42;;;0.90;;
36105;SDS011;22159;55.736;38.048;2023-02-13T09:23:48;1.88;;;0.88;;
36105;SDS011;22159;55.736;38.048;2023-02-13T09:26:16;3.05;;;0.95;;
36105;SDS011;22159;55.736;38.048;2023-02-13T09:28:42;3.50;;;0.90;;
36105;SDS011;22159;55.736;38.048;2023-02-13T09:31:08;2.00;;;0.85;;
36105;SDS011;22159;55.736;38.048;2023-02-13T09:33:35;1.27;;;0.73;;
36105;SDS011;22159;55.736;38.048;2023-02-13T09:36:08;6.10;;;0.85;;
36105;SDS011;22159;55.736;38.048;2023-02-13T09:38:34;3.53;;;0.75;;
36105;SDS011;22159;55.736;38.048;2023-02-13T09:41:03;1.48;;;0.77;;
36105;SDS011;22159;55.736;38.048;2023-02-13T09:43:31;2.33;;;0.80;;
36105;SDS011;22159;55.736;38.048;2023-02-13T09:46:01;2.20;;;0.63;;
36105;SDS011;22159;55.736;38.048;2023-02-13T09:48:31;1.17;;;0.63;;
36105;SDS011;22159;55.736;38.048;2023-02-13T09:50:57;1.15;;;0.90;;
36105;SDS011;22159;55.736;38.048;2023-02-13T09:53:25;2.10;;;0.85;;
36105;SDS011;22159;55.736;38.048;2023-02-13T10:01:51;1.55;;;0.75;;
36105;SDS011;22159;55.736;38.048;2023-02-13T10:06:32;2.05;;;0.70;;
36105;SDS011;22159;55.736;38.048;2023-02-13T10:09:16;1.58;;;0.70;;
36105;SDS011;22159;55.736;38.048;2023-02-13T10:17:16;2.03;;;0.63;;
36105;SDS011;22159;55.736;38.048;2023-02-13T10:22:13;1.42;;;0.70;;
36105;SDS011;22159;55.736;38.048;2023-02-13T10:24:43;3.42;;;1.10;;
36105;SDS011;22159;55.736;38.048;2023-02-13T10:29:49;4.28;;;1.13;;
36105;SDS011;22159;55.736;38.048;2023-02-13T10:34:59;7.88;;;1.40;;
36105;SDS011;22159;55.736;38.048;2023-02-13T10:37:27;5.22;;;1.35;;
36105;SDS011;22159;55.736;38.048;2023-02-13T10:39:53;7.18;;;1.30;;
36105;SDS011;22159;55.736;38.048;2023-02-13T11:00:26;8.18;;;1.20;;
36105;SDS011;22159;55.736;38.048;2023-02-13T11:02:55;3.97;;;1.10;;
36105;SDS011;22159;55.736;38.048;2023-02-13T11:05:24;6.35;;;1.30;;
36105;SDS011;22159;55.736;38.048;2023-02-13T11:07:50;7.53;;;2.00;;
36105;SDS011;22159;55.736;38.048;2023-02-13T11:10:21;5.38;;;1.30;;
36105;SDS011;22159;55.736;38.048;2023-02-13T11:17:49;7.90;;;1.17;;
36105;SDS011;22159;55.736;38.048;2023-02-13T11:22:47;10.23;;;1.70;;
36105;SDS011;22159;55.736;38.048;2023-02-13T11:27:43;3.63;;;1.15;;
36105;SDS011;22159;55.736;38.048;2023-02-13T11:32:58;3.25;;;1.25;;
36105;SDS011;22159;55.736;38.048;2023-02-13T11:35:28;3.35;;;1.05;;
36105;SDS011;22159;55.736;38.048;2023-02-13T11:40:33;6.15;;;1.30;;
36105;SDS011;22159;55.736;38.048;2023-02-13T11:42:59;4.53;;;2.05;;
36105;SDS011;22159;55.736;38.048;2023-02-13T11:45:25;3.72;;;1.90;;
36105;SDS011;22159;55.736;38.048;2023-02-13T11:47:52;4.22;;;2.00;;
36105;SDS011;22159;55.736;38.048;2023-02-13T11:50:20;6.15;;;1.80;;
36105;SDS011;22159;55.736;38.048;2023-02-13T11:52:57;6.78;;;2.15;;
36105;SDS011;22159;55.736;38.048;2023-02-13T11:58:24;4.70;;;1.25;;
36105;SDS011;22159;55.736;38.048;2023-02-13T12:00:43;4.43;;;1.60;;
36105;SDS011;22159;55.736;38.048;2023-02-13T12:03:28;5.03;;;1.70;;
36105;SDS011;22159;55.736;38.048;2023-02-13T12:08:40;3.67;;;1.60;;
36105;SDS011;22159;55.736;38.048;2023-02-13T12:11:33;4.85;;;1.50;;
36105;SDS011;22159;55.736;38.048;2023-02-13T12:13:53;3.75;;;1.25;;
36105;SDS011;22159;55.736;38.048;2023-02-13T12:18:50;4.05;;;1.20;;
36105;SDS011;22159;55.736;38.048;2023-02-13T12:24:11;4.68;;;1.50;;
36105;SDS011;22159;55.736;38.048;2023-02-13T12:26:41;2.67;;;1.25;;
36105;SDS011;22159;55.736;38.048;2023-02-13T12:39:25;4.00;;;1.30;;
36105;SDS011;22159;55.736;38.048;2023-02-13T12:47:15;3.20;;;1.20;;
36105;SDS011;22159;55.736;38.048;2023-02-13T13:05:37;3.47;;;1.25;;
36105;SDS011;22159;55.736;38.048;2023-02-13T13:10:53;3.65;;;1.10;;
36105;SDS011;22159;55.736;38.048;2023-02-13T13:13:34;1.85;;;0.93;;
36105;SDS011;22159;55.736;38.048;2023-02-13T13:21:13;3.90;;;1.10;;
36105;SDS011;22159;55.736;38.048;2023-02-13T13:26:19;6.28;;;1.08;;
36105;SDS011;22159;55.736;38.048;2023-02-13T13:28:48;4.50;;;1.23;;
36105;SDS011;22159;55.736;38.048;2023-02-13T13:31:15;5.40;;;1.17;;
36105;SDS011;22159;55.736;38.048;2023-02-13T13:33:42;2.50;;;0.90;;
36105;SDS011;22159;55.736;38.048;2023-02-13T13:36:19;3.17;;;1.15;;
36105;SDS011;22159;55.736;38.048;2023-02-13T13:44:14;3.08;;;1.15;;
36105;SDS011;22159;55.736;38.048;2023-02-13T13:51:51;3.45;;;1.25;;
36105;SDS011;22159;55.736;38.048;2023-02-13T13:54:18;5.13;;;1.30;;
36105;SDS011;22159;55.736;38.048;2023-02-13T13:57:02;4.38;;;1.20;;
36105;SDS011;22159;55.736;38.048;2023-02-13T14:07:25;2.50;;;1.10;;
36105;SDS011;22159;55.736;38.048;2023-02-13T14:09:58;2.10;;;1.25;;
36105;SDS011;22159;55.736;38.048;2023-02-13T14:14:51;3.85;;;1.20;;
36105;SDS011;22159;55.736;38.048;2023-02-13T14:20:14;3.15;;;0.90;;
36105;SDS011;22159;55.736;38.048;2023-02-13T14:22:41;3.85;;;1.10;;
36105;SDS011;22159;55.736;38.048;2023-02-13T14:25:20;2.28;;;0.90;;
36105;SDS011;22159;55.736;38.048;2023-02-13T14:27:55;2.72;;;1.00;;
36105;SDS011;22159;55.736;38.048;2023-02-13T14:30:28;4.43;;;1.30;;
36105;SDS011;22159;55.736;38.048;2023-02-13T14:32:55;2.95;;;0.95;;
36105;SDS011;22159;55.736;38.048;2023-02-13T14:35:22;4.20;;;1.10;;
36105;SDS011;22159;55.736;38.048;2023-02-13T14:37:50;1.55;;;1.20;;
36105;SDS011;22159;55.736;38.048;2023-02-13T14:42:45;3.65;;;1.30;;
36105;SDS011;22159;55.736;38.048;2023-02-13T14:45:18;1.98;;;0.70;;
36105;SDS011;22159;55.736;38.048;2023-02-13T14:47:46;2.45;;;0.85;;
36105;SDS011;22159;55.736;38.048;2023-02-13T14:50:27;2.47;;;1.13;;
36105;SDS011;22159;55.736;38.048;2023-02-13T14:52:54;2.70;;;0.95;;
36105;SDS011;22159;55.736;38.048;2023-02-13T14:55:44;1.75;;;0.80;;
36105;SDS011;22159;55.736;38.048;2023-02-13T15:06:23;1.55;;;0.80;;
36105;SDS011;22159;55.736;38.048;2023-02-13T15:08:51;2.45;;;0.82;;
36105;SDS011;22159;55.736;38.048;2023-02-13T15:14:14;1.13;;;0.80;;
36105;SDS011;22159;55.736;38.048;2023-02-13T15:16:41;1.67;;;1.00;;
36105;SDS011;22159;55.736;38.048;2023-02-13T15:19:13;2.22;;;0.95;;
36105;SDS011;22159;55.736;38.048;2023-02-13T15:21:45;0.90;;;0.70;;
36105;SDS011;22159;55.736;38.048;2023-02-13T15:24:12;1.88;;;0.70;;
36105;SDS011;22159;55.736;38.048;2023-02-13T15:26:39;1.45;;;0.70;;
36105;SDS011;22159;55.736;38.048;2023-02-13T15:29:13;1.80;;;0.73;;
36105;SDS011;22159;55.736;38.048;2023-02-13T15:31:40;1.08;;;0.70;;
36105;SDS011;22159;55.736;38.048;2023-02-13T15:34:23;1.55;;;0.73;;
36105;SDS011;22159;55.736;38.048;2023-02-13T15:36:49;2.25;;;0.70;;
36105;SDS011;22159;55.736;38.048;2023-02-13T15:39:16;1.48;;;0.70;;
36105;SDS011;22159;55.736;38.048;2023-02-13T15:41:47;1.08;;;0.60;;
36105;SDS011;22159;55.736;38.048;2023-02-13T15:44:22;0.88;;;0.60;;
36105;SDS011;22159;55.736;38.048;2023-02-13T15:46:49;1.15;;;0.80;;
36105;SDS011;22159;55.736;38.048;2023-02-13T15:49:17;2.65;;;0.90;;
36105;SDS011;22159;55.736;38.048;2023-02-13T15:51:44;2.38;;;0.77;;
36105;SDS011;22159;55.736;38.048;2023-02-13T15:54:21;1.60;;;0.90;;
36105;SDS011;22159;55.736;38.048;2023-02-13T15:56:48;1.35;;;0.70;;
36105;SDS011;22159;55.736;38.048;2023-02-13T15:59:15;3.08;;;0.70;;
36105;SDS011;22159;55.736;38.048;2023-02-13T16:01:43;1.38;;;0.80;;
36105;SDS011;22159;55.736;38.048;2023-02-13T16:04:10;1.13;;;0.70;;
36105;SDS011;22159;55.736;38.048;2023-02-13T16:06:37;1.13;;;0.63;;
36105;SDS011;22159;55.736;38.048;2023-02-13T16:09:03;2.17;;;0.90;;
36105;SDS011;22159;55.736;38.048;2023-02-13T16:16:28;1.42;;;0.93;;
36105;SDS011;22159;55.736;38.048;2023-02-13T16:18:55;2.70;;;0.90;;
36105;SDS011;22159;55.736;38.048;2023-02-13T16:21:22;1.60;;;0.80;;
36105;SDS011;22159;55.736;38.048;2023-02-13T16:23:49;0.80;;;0.63;;
36105;SDS011;22159;55.736;38.048;2023-02-13T16:26:16;1.48;;;0.68;;
36105;SDS011;22159;55.736;38.048;2023-02-13T16:28:44;2.15;;;0.90;;
36105;SDS011;22159;55.736;38.048;2023-02-13T16:31:14;1.55;;;0.70;;
36105;SDS011;22159;55.736;38.048;2023-02-13T16:33:43;1.30;;;0.70;;
36105;SDS011;22159;55.736;38.048;2023-02-13T16:38:38;1.30;;;0.70;;
36105;SDS011;22159;55.736;38.048;2023-02-13T16:41:07;2.70;;;0.70;;
36105;SDS011;22159;55.736;38.048;2023-02-13T16:46:22;1.45;;;0.73;;
36105;SDS011;22159;55.736;38.048;2023-02-13T16:52:07;2.10;;;0.80;;
36105;SDS011;22159;55.736;38.048;2023-02-13T17:01:38;2.95;;;0.80;;
36105;SDS011;22159;55.736;38.048;2023-02-13T17:04:13;3.60;;;1.20;;
36105;SDS011;22159;55.736;38.048;2023-02-13T17:06:40;2.05;;;0.80;;
36105;SDS011;22159;55.736;38.048;2023-02-13T17:09:06;2.97;;;0.80;;
36105;SDS011;22159;55.736;38.048;2023-02-13T17:11:32;2.05;;;1.00;;
36105;SDS011;22159;55.736;38.048;2023-02-13T17:13:58;2.03;;;1.10;;
36105;SDS011;22159;55.736;38.048;2023-02-13T17:16:24;2.67;;;1.13;;
36105;SDS011;22159;55.736;38.048;2023-02-13T17:18:50;2.25;;;1.25;;
36105;SDS011;22159;55.736;38.048;2023-02-13T17:21:16;3.25;;;1.30;;
36105;SDS011;22159;55.736;38.048;2023-02-13T17:23:42;3.72;;;1.30;;
36105;SDS011;22159;55.736;38.048;2023-02-13T17:26:08;4.13;;;1.15;;
36105;SDS011;22159;55.736;38.048;2023-02-13T17:28:34;3.63;;;1.40;;
36105;SDS011;22159;55.736;38.048;2023-02-13T17:31:01;3.28;;;1.33;;
36105;SDS011;22159;55.736;38.048;2023-02-13T17:33:29;3.83;;;1.15;;
36105;SDS011;22159;55.736;38.048;2023-02-13T17:35:55;3.00;;;1.30;;
36105;SDS011;22159;55.736;38.048;2023-02-13T17:38:21;2.28;;;1.20;;
36105;SDS011;22159;55.736;38.048;2023-02-13T17:40:47;3.17;;;1.30;;
36105;SDS011;22159;55.736;38.048;2023-02-13T17:43:14;3.33;;;1.33;;
36105;SDS011;22159;55.736;38.048;2023-02-13T17:45:40;3.30;;;1.60;;
36105;SDS011;22159;55.736;38.048;2023-02-13T17:48:13;2.25;;;1.33;;
36105;SDS011;22159;55.736;38.048;2023-02-13T17:50:39;2.85;;;1.58;;
36105;SDS011;22159;55.736;38.048;2023-02-13T17:53:06;3.25;;;1.30;;
36105;SDS011;22159;55.736;38.048;2023-02-13T17:55:33;4.18;;;1.60;;
36105;SDS011;22159;55.736;38.048;2023-02-13T17:58:00;2.58;;;1.33;;
36105;SDS011;22159;55.736;38.048;2023-02-13T18:00:27;3.25;;;1.50;;
36105;SDS011;22159;55.736;38.048;2023-02-13T18:02:53;3.58;;;1.77;;
36105;SDS011;22159;55.736;38.048;2023-02-13T18:05:20;3.08;;;1.38;;
36105;SDS011;22159;55.736;38.048;2023-02-13T18:07:46;3.65;;;1.60;;